sensor_id;sensor_type;location;lat;lon;timestamp;P1;durP1;ratioP1;P2;durP2;ratioP2
70667;SDS011;58242;51.250;-1.118;2023-12-20T00:02:09;6.65;;;2.95;;
70667;SDS011;58242;51.250;-1.118;2023-12-20T00:04:34;5.38;;;2.88;;
70667;SDS011;58242;51.250;-1.118;2023-12-20T00:07:00;4.40;;;3.13;;
70667;SDS011;58242;51.250;-1.118;2023-12-20T00:09:26;4.30;;;3.17;;
70667;SDS011;58242;51.250;-1.118;2023-12-20T00:11:52;6.45;;;3.33;;
70667;SDS011;58242;51.250;-1.118;2023-12-20T00:14:17;6.90;;;3.45;;
70667;SDS011;58242;51.250;-1.118;2023-12-20T00:16:42;4.57;;;3.42;;
70667;SDS011;58242;51.250;-1.118;2023-12-20T00:19:08;4.47;;;3.40;;
70667;SDS011;58242;51.250;-1.118;2023-12-20T00:21:33;6.90;;;4.05;;
70667;SDS011;58242;51.250;-1.118;2023-12-20T00:23:58;3.53;;;3.22;;
70667;SDS011;58242;51.250;-1.118;2023-12-20T00:26:24;3.08;;;2.88;;
70667;SDS011;58242;51.250;-1.118;2023-12-20T00:28:49;3.40;;;2.40;;
70667;SDS011;58242;51.250;-1.118;2023-12-20T00:31:14;8.77;;;3.13;;
70667;SDS011;58242;51.250;-1.118;2023-12-20T00:33:39;6.90;;;2.92;;
70667;SDS011;58242;51.250;-1.118;2023-12-20T00:36:08;3.45;;;2.88;;
70667;SDS011;58242;51.250;-1.118;2023-12-20T00:38:33;4.15;;;2.67;;
70667;SDS011;58242;51.250;-1.118;2023-12-20T00:40:59;6.55;;;3.60;;
70667;SDS011;58242;51.250;-1.118;2023-12-20T00:43:24;6.60;;;3.15;;
70667;SDS011;58242;51.250;-1.118;2023-12-20T00:45:49;5.97;;;3.60;;
70667;SDS011;58242;51.250;-1.118;2023-12-20T00:48:15;6.05;;;3.00;;
70667;SDS011;58242;51.250;-1.118;2023-12-20T00:50:40;5.30;;;3.60;;
70667;SDS011;58242;51.250;-1.118;2023-12-20T00:53:05;4.47;;;3.75;;
70667;SDS011;58242;51.250;-1.118;2023-12-20T00:55:31;5.18;;;3.80;;
70667;SDS011;58242;51.250;-1.118;2023-12-20T00:57:56;4.88;;;2.90;;
70667;SDS011;58242;51.250;-1.118;2023-12-20T01:00:21;10.52;;;3.60;;
70667;SDS011;58242;51.250;-1.118;2023-12-20T01:02:47;4.10;;;3.42;;
70667;SDS011;58242;51.250;-1.118;2023-12-20T01:05:14;4.20;;;3.40;;
70667;SDS011;58242;51.250;-1.118;2023-12-20T01:07:40;7.82;;;3.67;;
70667;SDS011;58242;51.250;-1.118;2023-12-20T01:10:05;3.38;;;3.10;;
70667;SDS011;58242;51.250;-1.118;2023-12-20T01:12:31;7.65;;;3.65;;
70667;SDS011;58242;51.250;-1.118;2023-12-20T01:14:56;5.97;;;3.42;;
70667;SDS011;58242;51.250;-1.118;2023-12-20T01:17:22;7.93;;;3.97;;
70667;SDS011;58242;51.250;-1.118;2023-12-20T01:19:48;4.57;;;3.15;;
70667;SDS011;58242;51.250;-1.118;2023-12-20T01:22:13;7.72;;;3.58;;
70667;SDS011;58242;51.250;-1.118;2023-12-20T01:24:38;3.30;;;3.00;;
70667;SDS011;58242;51.250;-1.118;2023-12-20T01:27:04;8.60;;;3.33;;
70667;SDS011;58242;51.250;-1.118;2023-12-20T01:29:29;3.80;;;3.17;;
70667;SDS011;58242;51.250;-1.118;2023-12-20T01:31:54;4.85;;;3.35;;
70667;SDS011;58242;51.250;-1.118;2023-12-20T01:34:20;4.88;;;2.80;;
70667;SDS011;58242;51.250;-1.118;2023-12-20T01:36:46;7.65;;;3.50;;
70667;SDS011;58242;51.250;-1.118;2023-12-20T01:39:11;5.40;;;3.35;;
70667;SDS011;58242;51.250;-1.118;2023-12-20T01:41:36;5.28;;;3.17;;
70667;SDS011;58242;51.250;-1.118;2023-12-20T01:44:02;4.50;;;3.22;;
70667;SDS011;58242;51.250;-1.118;2023-12-20T01:46:27;3.33;;;3.05;;
70667;SDS011;58242;51.250;-1.118;2023-12-20T01:48:52;6.65;;;4.03;;
70667;SDS011;58242;51.250;-1.118;2023-12-20T01:51:18;4.47;;;3.40;;
70667;SDS011;58242;51.250;-1.118;2023-12-20T01:53:44;10.15;;;3.50;;
70667;SDS011;58242;51.250;-1.118;2023-12-20T01:56:10;5.45;;;3.50;;
70667;SDS011;58242;51.250;-1.118;2023-12-20T01:58:41;9.05;;;3.90;;
70667;SDS011;58242;51.250;-1.118;2023-12-20T02:01:11;7.28;;;3.55;;
70667;SDS011;58242;51.250;-1.118;2023-12-20T02:03:37;6.05;;;3.70;;
70667;SDS011;58242;51.250;-1.118;2023-12-20T02:06:03;3.78;;;3.30;;
70667;SDS011;58242;51.250;-1.118;2023-12-20T02:08:30;13.25;;;3.95;;
70667;SDS011;58242;51.250;-1.118;2023-12-20T02:10:55;7.30;;;3.83;;
70667;SDS011;58242;51.250;-1.118;2023-12-20T02:13:21;5.03;;;3.47;;
70667;SDS011;58242;51.250;-1.118;2023-12-20T02:15:46;4.68;;;3.25;;
70667;SDS011;58242;51.250;-1.118;2023-12-20T02:18:12;4.20;;;3.13;;
70667;SDS011;58242;51.250;-1.118;2023-12-20T02:20:40;5.93;;;3.83;;
70667;SDS011;58242;51.250;-1.118;2023-12-20T02:23:06;6.32;;;3.60;;
70667;SDS011;58242;51.250;-1.118;2023-12-20T02:25:31;3.53;;;3.10;;
70667;SDS011;58242;51.250;-1.118;2023-12-20T02:27:56;5.68;;;3.67;;
70667;SDS011;58242;51.250;-1.118;2023-12-20T02:30:22;5.68;;;3.50;;
70667;SDS011;58242;51.250;-1.118;2023-12-20T02:32:48;5.82;;;3.47;;
70667;SDS011;58242;51.250;-1.118;2023-12-20T02:35:14;5.18;;;3.40;;
70667;SDS011;58242;51.250;-1.118;2023-12-20T02:37:40;7.03;;;3.53;;
70667;SDS011;58242;51.250;-1.118;2023-12-20T02:40:05;6.88;;;4.25;;
70667;SDS011;58242;51.250;-1.118;2023-12-20T02:42:31;7.72;;;4.18;;
70667;SDS011;58242;51.250;-1.118;2023-12-20T02:44:57;6.18;;;3.30;;
70667;SDS011;58242;51.250;-1.118;2023-12-20T02:47:22;11.48;;;4.10;;
70667;SDS011;58242;51.250;-1.118;2023-12-20T02:49:47;6.93;;;3.53;;
70667;SDS011;58242;51.250;-1.118;2023-12-20T02:52:14;10.50;;;3.65;;
70667;SDS011;58242;51.250;-1.118;2023-12-20T02:54:39;6.05;;;3.65;;
70667;SDS011;58242;51.250;-1.118;2023-12-20T02:57:04;5.05;;;3.53;;
70667;SDS011;58242;51.250;-1.118;2023-12-20T02:59:30;3.53;;;3.22;;
70667;SDS011;58242;51.250;-1.118;2023-12-20T03:01:55;8.05;;;4.10;;
70667;SDS011;58242;51.250;-1.118;2023-12-20T03:04:20;4.80;;;3.25;;
70667;SDS011;58242;51.250;-1.118;2023-12-20T03:06:46;11.07;;;4.43;;
70667;SDS011;58242;51.250;-1.118;2023-12-20T03:09:11;5.82;;;3.75;;
70667;SDS011;58242;51.250;-1.118;2023-12-20T03:11:37;4.43;;;3.45;;
70667;SDS011;58242;51.250;-1.118;2023-12-20T03:14:02;10.18;;;3.50;;
70667;SDS011;58242;51.250;-1.118;2023-12-20T03:16:27;6.13;;;3.58;;
70667;SDS011;58242;51.250;-1.118;2023-12-20T03:18:53;8.85;;;3.78;;
70667;SDS011;58242;51.250;-1.118;2023-12-20T03:21:18;8.38;;;3.50;;
70667;SDS011;58242;51.250;-1.118;2023-12-20T03:23:44;5.50;;;3.83;;
70667;SDS011;58242;51.250;-1.118;2023-12-20T03:26:10;5.30;;;3.65;;
70667;SDS011;58242;51.250;-1.118;2023-12-20T03:28:38;4.75;;;3.08;;
70667;SDS011;58242;51.250;-1.118;2023-12-20T03:31:03;7.32;;;3.38;;
70667;SDS011;58242;51.250;-1.118;2023-12-20T03:33:29;8.75;;;3.33;;
70667;SDS011;58242;51.250;-1.118;2023-12-20T03:35:55;5.10;;;3.55;;
70667;SDS011;58242;51.250;-1.118;2023-12-20T03:38:20;5.43;;;3.40;;
70667;SDS011;58242;51.250;-1.118;2023-12-20T03:40:46;9.40;;;3.38;;
70667;SDS011;58242;51.250;-1.118;2023-12-20T03:43:11;9.55;;;3.50;;
70667;SDS011;58242;51.250;-1.118;2023-12-20T03:45:37;7.78;;;3.58;;
70667;SDS011;58242;51.250;-1.118;2023-12-20T03:48:02;6.25;;;3.67;;
70667;SDS011;58242;51.250;-1.118;2023-12-20T03:50:28;6.40;;;3.65;;
70667;SDS011;58242;51.250;-1.118;2023-12-20T03:52:54;9.63;;;4.18;;
70667;SDS011;58242;51.250;-1.118;2023-12-20T03:55:19;8.57;;;3.60;;
70667;SDS011;58242;51.250;-1.118;2023-12-20T03:57:44;4.20;;;3.17;;
70667;SDS011;58242;51.250;-1.118;2023-12-20T04:00:10;9.40;;;4.28;;
70667;SDS011;58242;51.250;-1.118;2023-12-20T04:02:39;7.28;;;3.88;;
70667;SDS011;58242;51.250;-1.118;2023-12-20T04:05:06;7.30;;;3.92;;
70667;SDS011;58242;51.250;-1.118;2023-12-20T04:07:32;5.88;;;3.47;;
70667;SDS011;58242;51.250;-1.118;2023-12-20T04:09:57;7.45;;;3.78;;
70667;SDS011;58242;51.250;-1.118;2023-12-20T04:12:23;7.80;;;3.60;;
70667;SDS011;58242;51.250;-1.118;2023-12-20T04:14:48;7.72;;;3.85;;
70667;SDS011;58242;51.250;-1.118;2023-12-20T04:17:14;6.25;;;3.45;;
70667;SDS011;58242;51.250;-1.118;2023-12-20T04:19:43;5.47;;;3.05;;
70667;SDS011;58242;51.250;-1.118;2023-12-20T04:22:08;11.27;;;4.47;;
70667;SDS011;58242;51.250;-1.118;2023-12-20T04:24:34;5.68;;;3.55;;
70667;SDS011;58242;51.250;-1.118;2023-12-20T04:26:59;6.80;;;3.58;;
70667;SDS011;58242;51.250;-1.118;2023-12-20T04:29:25;8.18;;;3.65;;
70667;SDS011;58242;51.250;-1.118;2023-12-20T04:31:50;7.57;;;4.18;;
70667;SDS011;58242;51.250;-1.118;2023-12-20T04:34:19;9.75;;;3.67;;
70667;SDS011;58242;51.250;-1.118;2023-12-20T04:36:44;8.30;;;4.05;;
70667;SDS011;58242;51.250;-1.118;2023-12-20T04:39:11;9.00;;;3.70;;
70667;SDS011;58242;51.250;-1.118;2023-12-20T04:41:36;17.38;;;4.55;;
70667;SDS011;58242;51.250;-1.118;2023-12-20T04:44:02;11.35;;;4.70;;
70667;SDS011;58242;51.250;-1.118;2023-12-20T04:46:27;7.03;;;4.30;;
70667;SDS011;58242;51.250;-1.118;2023-12-20T04:48:53;8.25;;;4.45;;
70667;SDS011;58242;51.250;-1.118;2023-12-20T04:51:18;11.93;;;4.53;;
70667;SDS011;58242;51.250;-1.118;2023-12-20T04:53:43;7.68;;;3.85;;
70667;SDS011;58242;51.250;-1.118;2023-12-20T04:56:09;10.05;;;4.20;;
70667;SDS011;58242;51.250;-1.118;2023-12-20T04:58:34;9.48;;;4.22;;
70667;SDS011;58242;51.250;-1.118;2023-12-20T05:00:59;8.25;;;4.03;;
70667;SDS011;58242;51.250;-1.118;2023-12-20T05:03:25;14.55;;;5.18;;
70667;SDS011;58242;51.250;-1.118;2023-12-20T05:05:50;9.82;;;3.78;;
70667;SDS011;58242;51.250;-1.118;2023-12-20T05:08:15;8.70;;;4.47;;
70667;SDS011;58242;51.250;-1.118;2023-12-20T05:10:41;10.93;;;4.80;;
70667;SDS011;58242;51.250;-1.118;2023-12-20T05:13:06;8.82;;;4.65;;
70667;SDS011;58242;51.250;-1.118;2023-12-20T05:15:32;6.32;;;4.28;;
70667;SDS011;58242;51.250;-1.118;2023-12-20T05:17:58;8.15;;;4.22;;
70667;SDS011;58242;51.250;-1.118;2023-12-20T05:20:23;8.18;;;4.15;;
70667;SDS011;58242;51.250;-1.118;2023-12-20T05:22:49;8.93;;;4.53;;
70667;SDS011;58242;51.250;-1.118;2023-12-20T05:25:14;4.88;;;4.07;;
70667;SDS011;58242;51.250;-1.118;2023-12-20T05:27:39;10.43;;;4.20;;
70667;SDS011;58242;51.250;-1.118;2023-12-20T05:30:05;6.55;;;4.15;;
70667;SDS011;58242;51.250;-1.118;2023-12-20T05:32:31;10.27;;;4.68;;
70667;SDS011;58242;51.250;-1.118;2023-12-20T05:34:56;6.68;;;4.32;;
70667;SDS011;58242;51.250;-1.118;2023-12-20T05:37:21;9.45;;;4.60;;
70667;SDS011;58242;51.250;-1.118;2023-12-20T05:39:47;7.82;;;4.80;;
70667;SDS011;58242;51.250;-1.118;2023-12-20T05:42:12;5.20;;;3.72;;
70667;SDS011;58242;51.250;-1.118;2023-12-20T05:44:37;7.32;;;4.20;;
70667;SDS011;58242;51.250;-1.118;2023-12-20T05:47:03;9.52;;;4.15;;
70667;SDS011;58242;51.250;-1.118;2023-12-20T05:49:28;9.25;;;4.60;;
70667;SDS011;58242;51.250;-1.118;2023-12-20T05:51:53;6.35;;;3.85;;
70667;SDS011;58242;51.250;-1.118;2023-12-20T05:54:19;8.80;;;3.97;;
70667;SDS011;58242;51.250;-1.118;2023-12-20T05:56:44;10.52;;;4.78;;
70667;SDS011;58242;51.250;-1.118;2023-12-20T05:59:09;10.95;;;5.05;;
70667;SDS011;58242;51.250;-1.118;2023-12-20T06:01:35;6.40;;;4.30;;
70667;SDS011;58242;51.250;-1.118;2023-12-20T06:04:00;10.27;;;5.07;;
70667;SDS011;58242;51.250;-1.118;2023-12-20T06:06:25;14.23;;;5.40;;
70667;SDS011;58242;51.250;-1.118;2023-12-20T06:08:51;11.05;;;5.45;;
70667;SDS011;58242;51.250;-1.118;2023-12-20T06:11:16;8.73;;;4.85;;
70667;SDS011;58242;51.250;-1.118;2023-12-20T06:13:42;5.53;;;4.00;;
70667;SDS011;58242;51.250;-1.118;2023-12-20T06:16:07;9.25;;;4.68;;
70667;SDS011;58242;51.250;-1.118;2023-12-20T06:18:33;10.95;;;5.50;;
70667;SDS011;58242;51.250;-1.118;2023-12-20T06:20:58;7.55;;;4.53;;
70667;SDS011;58242;51.250;-1.118;2023-12-20T06:23:23;13.02;;;4.90;;
70667;SDS011;58242;51.250;-1.118;2023-12-20T06:25:49;9.25;;;5.03;;
70667;SDS011;58242;51.250;-1.118;2023-12-20T06:28:14;17.67;;;5.22;;
70667;SDS011;58242;51.250;-1.118;2023-12-20T06:30:40;12.93;;;5.43;;
70667;SDS011;58242;51.250;-1.118;2023-12-20T06:33:05;13.05;;;5.65;;
70667;SDS011;58242;51.250;-1.118;2023-12-20T06:35:31;7.85;;;4.90;;
70667;SDS011;58242;51.250;-1.118;2023-12-20T06:37:57;10.60;;;4.78;;
70667;SDS011;58242;51.250;-1.118;2023-12-20T06:40:22;11.20;;;4.88;;
70667;SDS011;58242;51.250;-1.118;2023-12-20T06:42:47;7.50;;;4.85;;
70667;SDS011;58242;51.250;-1.118;2023-12-20T06:45:13;10.57;;;4.50;;
70667;SDS011;58242;51.250;-1.118;2023-12-20T06:47:38;9.27;;;4.75;;
70667;SDS011;58242;51.250;-1.118;2023-12-20T06:50:04;7.45;;;4.72;;
70667;SDS011;58242;51.250;-1.118;2023-12-20T06:52:30;6.82;;;4.78;;
70667;SDS011;58242;51.250;-1.118;2023-12-20T06:54:55;10.57;;;4.90;;
70667;SDS011;58242;51.250;-1.118;2023-12-20T06:57:21;5.85;;;4.47;;
70667;SDS011;58242;51.250;-1.118;2023-12-20T06:59:46;12.02;;;5.75;;
70667;SDS011;58242;51.250;-1.118;2023-12-20T07:02:11;10.90;;;5.35;;
70667;SDS011;58242;51.250;-1.118;2023-12-20T07:04:40;6.00;;;4.47;;
70667;SDS011;58242;51.250;-1.118;2023-12-20T07:07:06;7.40;;;4.32;;
70667;SDS011;58242;51.250;-1.118;2023-12-20T07:09:32;6.05;;;4.22;;
70667;SDS011;58242;51.250;-1.118;2023-12-20T07:11:57;7.18;;;4.30;;
70667;SDS011;58242;51.250;-1.118;2023-12-20T07:14:23;6.57;;;4.47;;
70667;SDS011;58242;51.250;-1.118;2023-12-20T07:16:48;7.72;;;4.65;;
70667;SDS011;58242;51.250;-1.118;2023-12-20T07:19:14;8.10;;;4.72;;
70667;SDS011;58242;51.250;-1.118;2023-12-20T07:21:39;7.50;;;4.47;;
70667;SDS011;58242;51.250;-1.118;2023-12-20T07:24:05;12.30;;;5.00;;
70667;SDS011;58242;51.250;-1.118;2023-12-20T07:26:30;11.57;;;4.97;;
70667;SDS011;58242;51.250;-1.118;2023-12-20T07:28:55;7.70;;;4.60;;
70667;SDS011;58242;51.250;-1.118;2023-12-20T07:31:21;5.93;;;4.88;;
70667;SDS011;58242;51.250;-1.118;2023-12-20T07:33:46;9.15;;;4.97;;
70667;SDS011;58242;51.250;-1.118;2023-12-20T07:36:12;11.43;;;5.35;;
70667;SDS011;58242;51.250;-1.118;2023-12-20T07:38:38;11.00;;;5.82;;
70667;SDS011;58242;51.250;-1.118;2023-12-20T07:41:03;11.23;;;5.65;;
70667;SDS011;58242;51.250;-1.118;2023-12-20T07:43:29;10.50;;;5.50;;
70667;SDS011;58242;51.250;-1.118;2023-12-20T07:45:54;6.57;;;5.03;;
70667;SDS011;58242;51.250;-1.118;2023-12-20T07:48:20;8.40;;;5.03;;
70667;SDS011;58242;51.250;-1.118;2023-12-20T07:50:45;4.90;;;4.00;;
70667;SDS011;58242;51.250;-1.118;2023-12-20T07:53:10;5.38;;;4.50;;
70667;SDS011;58242;51.250;-1.118;2023-12-20T07:55:36;5.50;;;4.05;;
70667;SDS011;58242;51.250;-1.118;2023-12-20T07:58:01;6.47;;;4.18;;
70667;SDS011;58242;51.250;-1.118;2023-12-20T08:00:27;5.97;;;4.38;;
70667;SDS011;58242;51.250;-1.118;2023-12-20T08:02:52;8.70;;;4.18;;
70667;SDS011;58242;51.250;-1.118;2023-12-20T08:05:17;10.13;;;4.57;;
70667;SDS011;58242;51.250;-1.118;2023-12-20T08:07:43;8.43;;;4.00;;
70667;SDS011;58242;51.250;-1.118;2023-12-20T08:10:08;5.18;;;3.80;;
70667;SDS011;58242;51.250;-1.118;2023-12-20T08:12:34;6.18;;;4.65;;
70667;SDS011;58242;51.250;-1.118;2023-12-20T08:14:59;5.78;;;3.92;;
70667;SDS011;58242;51.250;-1.118;2023-12-20T08:17:25;7.55;;;4.15;;
70667;SDS011;58242;51.250;-1.118;2023-12-20T08:19:50;10.18;;;4.18;;
70667;SDS011;58242;51.250;-1.118;2023-12-20T08:22:16;6.65;;;4.22;;
70667;SDS011;58242;51.250;-1.118;2023-12-20T08:24:42;4.75;;;4.20;;
70667;SDS011;58242;51.250;-1.118;2023-12-20T08:27:07;9.23;;;4.35;;
70667;SDS011;58242;51.250;-1.118;2023-12-20T08:29:34;7.38;;;4.35;;
70667;SDS011;58242;51.250;-1.118;2023-12-20T08:32:00;5.65;;;4.05;;
70667;SDS011;58242;51.250;-1.118;2023-12-20T08:34:25;5.70;;;3.90;;
70667;SDS011;58242;51.250;-1.118;2023-12-20T08:36:51;8.00;;;3.88;;
70667;SDS011;58242;51.250;-1.118;2023-12-20T08:39:16;4.72;;;3.85;;
70667;SDS011;58242;51.250;-1.118;2023-12-20T08:41:42;6.97;;;3.95;;
70667;SDS011;58242;51.250;-1.118;2023-12-20T08:44:08;6.45;;;3.58;;
70667;SDS011;58242;51.250;-1.118;2023-12-20T08:46:34;10.52;;;4.13;;
70667;SDS011;58242;51.250;-1.118;2023-12-20T08:48:59;8.02;;;4.25;;
70667;SDS011;58242;51.250;-1.118;2023-12-20T08:51:25;5.35;;;2.95;;
70667;SDS011;58242;51.250;-1.118;2023-12-20T08:53:51;5.78;;;2.67;;
70667;SDS011;58242;51.250;-1.118;2023-12-20T08:56:16;11.48;;;3.60;;
70667;SDS011;58242;51.250;-1.118;2023-12-20T08:58:43;6.65;;;3.40;;
70667;SDS011;58242;51.250;-1.118;2023-12-20T09:01:08;3.83;;;3.38;;
70667;SDS011;58242;51.250;-1.118;2023-12-20T09:03:34;8.18;;;3.67;;
70667;SDS011;58242;51.250;-1.118;2023-12-20T09:05:59;3.67;;;3.10;;
70667;SDS011;58242;51.250;-1.118;2023-12-20T09:08:25;5.32;;;3.17;;
70667;SDS011;58242;51.250;-1.118;2023-12-20T09:10:50;3.95;;;3.38;;
70667;SDS011;58242;51.250;-1.118;2023-12-20T09:13:15;5.88;;;3.03;;
70667;SDS011;58242;51.250;-1.118;2023-12-20T09:15:41;4.72;;;3.20;;
70667;SDS011;58242;51.250;-1.118;2023-12-20T09:18:06;5.93;;;3.53;;
70667;SDS011;58242;51.250;-1.118;2023-12-20T09:20:31;6.97;;;3.88;;
70667;SDS011;58242;51.250;-1.118;2023-12-20T09:22:57;5.72;;;3.10;;
70667;SDS011;58242;51.250;-1.118;2023-12-20T09:25:23;7.63;;;3.53;;
70667;SDS011;58242;51.250;-1.118;2023-12-20T09:27:48;7.55;;;3.60;;
70667;SDS011;58242;51.250;-1.118;2023-12-20T09:30:14;3.35;;;3.00;;
70667;SDS011;58242;51.250;-1.118;2023-12-20T09:32:39;8.38;;;3.42;;
70667;SDS011;58242;51.250;-1.118;2023-12-20T09:35:05;7.25;;;3.15;;
70667;SDS011;58242;51.250;-1.118;2023-12-20T09:37:31;6.28;;;3.35;;
70667;SDS011;58242;51.250;-1.118;2023-12-20T09:39:57;7.15;;;3.53;;
70667;SDS011;58242;51.250;-1.118;2023-12-20T09:42:29;6.00;;;3.15;;
70667;SDS011;58242;51.250;-1.118;2023-12-20T09:45:03;4.88;;;3.60;;
70667;SDS011;58242;51.250;-1.118;2023-12-20T09:47:34;4.95;;;3.10;;
70667;SDS011;58242;51.250;-1.118;2023-12-20T09:50:00;7.32;;;3.50;;
70667;SDS011;58242;51.250;-1.118;2023-12-20T09:52:27;5.13;;;3.13;;
70667;SDS011;58242;51.250;-1.118;2023-12-20T09:54:53;7.20;;;3.00;;
70667;SDS011;58242;51.250;-1.118;2023-12-20T09:57:20;6.90;;;2.80;;
70667;SDS011;58242;51.250;-1.118;2023-12-20T09:59:46;5.15;;;3.60;;
70667;SDS011;58242;51.250;-1.118;2023-12-20T10:02:12;5.70;;;3.58;;
70667;SDS011;58242;51.250;-1.118;2023-12-20T10:04:41;4.20;;;2.63;;
70667;SDS011;58242;51.250;-1.118;2023-12-20T10:07:11;4.63;;;3.28;;
70667;SDS011;58242;51.250;-1.118;2023-12-20T10:09:36;4.22;;;2.78;;
70667;SDS011;58242;51.250;-1.118;2023-12-20T10:12:03;5.57;;;2.83;;
70667;SDS011;58242;51.250;-1.118;2023-12-20T10:14:30;5.07;;;3.13;;
70667;SDS011;58242;51.250;-1.118;2023-12-20T10:17:03;6.10;;;3.38;;
70667;SDS011;58242;51.250;-1.118;2023-12-20T10:19:29;4.85;;;2.80;;
70667;SDS011;58242;51.250;-1.118;2023-12-20T10:21:55;5.00;;;3.05;;
70667;SDS011;58242;51.250;-1.118;2023-12-20T10:24:21;5.38;;;3.70;;
70667;SDS011;58242;51.250;-1.118;2023-12-20T10:26:46;4.53;;;2.88;;
70667;SDS011;58242;51.250;-1.118;2023-12-20T10:29:11;7.10;;;3.17;;
70667;SDS011;58242;51.250;-1.118;2023-12-20T10:31:37;6.53;;;3.15;;
70667;SDS011;58242;51.250;-1.118;2023-12-20T10:34:05;5.80;;;3.38;;
70667;SDS011;58242;51.250;-1.118;2023-12-20T10:36:31;3.75;;;2.42;;
70667;SDS011;58242;51.250;-1.118;2023-12-20T10:38:58;8.60;;;2.85;;
70667;SDS011;58242;51.250;-1.118;2023-12-20T10:41:25;4.35;;;2.83;;
70667;SDS011;58242;51.250;-1.118;2023-12-20T10:43:54;3.50;;;2.75;;
70667;SDS011;58242;51.250;-1.118;2023-12-20T10:46:22;3.03;;;2.58;;
70667;SDS011;58242;51.250;-1.118;2023-12-20T10:51:40;4.55;;;3.03;;
70667;SDS011;58242;51.250;-1.118;2023-12-20T10:54:16;4.20;;;2.35;;
70667;SDS011;58242;51.250;-1.118;2023-12-20T10:56:42;2.90;;;2.60;;
70667;SDS011;58242;51.250;-1.118;2023-12-20T10:59:08;5.53;;;2.70;;
70667;SDS011;58242;51.250;-1.118;2023-12-20T11:01:36;3.13;;;2.88;;
70667;SDS011;58242;51.250;-1.118;2023-12-20T11:04:03;3.47;;;2.50;;
70667;SDS011;58242;51.250;-1.118;2023-12-20T11:14:46;4.88;;;3.10;;
70667;SDS011;58242;51.250;-1.118;2023-12-20T11:17:12;2.97;;;2.60;;
70667;SDS011;58242;51.250;-1.118;2023-12-20T11:22:21;3.08;;;2.60;;
70667;SDS011;58242;51.250;-1.118;2023-12-20T11:27:13;3.42;;;2.53;;
70667;SDS011;58242;51.250;-1.118;2023-12-20T11:29:40;4.82;;;2.42;;
70667;SDS011;58242;51.250;-1.118;2023-12-20T11:34:54;3.83;;;2.70;;
70667;SDS011;58242;51.250;-1.118;2023-12-20T11:37:20;3.92;;;2.55;;
70667;SDS011;58242;51.250;-1.118;2023-12-20T11:39:56;4.30;;;2.60;;
70667;SDS011;58242;51.250;-1.118;2023-12-20T11:42:25;3.92;;;2.63;;
70667;SDS011;58242;51.250;-1.118;2023-12-20T11:44:51;4.70;;;2.30;;
70667;SDS011;58242;51.250;-1.118;2023-12-20T11:47:16;3.28;;;2.28;;
70667;SDS011;58242;51.250;-1.118;2023-12-20T11:49:46;3.30;;;2.30;;
70667;SDS011;58242;51.250;-1.118;2023-12-20T11:52:12;4.28;;;2.88;;
70667;SDS011;58242;51.250;-1.118;2023-12-20T11:54:38;2.88;;;2.25;;
70667;SDS011;58242;51.250;-1.118;2023-12-20T11:57:03;3.67;;;2.58;;
70667;SDS011;58242;51.250;-1.118;2023-12-20T11:59:29;2.50;;;2.30;;
70667;SDS011;58242;51.250;-1.118;2023-12-20T12:02:31;3.65;;;2.45;;
70667;SDS011;58242;51.250;-1.118;2023-12-20T12:05:30;4.45;;;2.78;;
70667;SDS011;58242;51.250;-1.118;2023-12-20T12:10:44;4.40;;;2.50;;
70667;SDS011;58242;51.250;-1.118;2023-12-20T12:13:10;5.20;;;2.58;;
70667;SDS011;58242;51.250;-1.118;2023-12-20T12:15:36;2.70;;;2.50;;
70667;SDS011;58242;51.250;-1.118;2023-12-20T12:18:02;2.40;;;2.20;;
70667;SDS011;58242;51.250;-1.118;2023-12-20T12:20:28;2.90;;;2.63;;
70667;SDS011;58242;51.250;-1.118;2023-12-20T12:25:25;2.83;;;2.63;;
70667;SDS011;58242;51.250;-1.118;2023-12-20T12:27:50;2.95;;;2.72;;
70667;SDS011;58242;51.250;-1.118;2023-12-20T12:30:16;3.50;;;2.55;;
70667;SDS011;58242;51.250;-1.118;2023-12-20T12:32:43;2.50;;;2.30;;
70667;SDS011;58242;51.250;-1.118;2023-12-20T12:35:09;2.47;;;2.35;;
70667;SDS011;58242;51.250;-1.118;2023-12-20T12:37:36;2.88;;;2.30;;
70667;SDS011;58242;51.250;-1.118;2023-12-20T12:40:05;5.10;;;2.80;;
70667;SDS011;58242;51.250;-1.118;2023-12-20T12:42:31;5.50;;;2.83;;
70667;SDS011;58242;51.250;-1.118;2023-12-20T12:44:57;3.70;;;2.88;;
70667;SDS011;58242;51.250;-1.118;2023-12-20T12:47:22;2.40;;;2.30;;
70667;SDS011;58242;51.250;-1.118;2023-12-20T12:49:49;2.65;;;2.45;;
70667;SDS011;58242;51.250;-1.118;2023-12-20T12:52:16;2.90;;;2.70;;
70667;SDS011;58242;51.250;-1.118;2023-12-20T12:54:41;3.33;;;2.55;;
70667;SDS011;58242;51.250;-1.118;2023-12-20T12:57:07;2.80;;;2.50;;
70667;SDS011;58242;51.250;-1.118;2023-12-20T12:59:33;2.80;;;2.60;;
70667;SDS011;58242;51.250;-1.118;2023-12-20T13:01:58;2.60;;;2.40;;
70667;SDS011;58242;51.250;-1.118;2023-12-20T13:04:23;2.50;;;2.30;;
70667;SDS011;58242;51.250;-1.118;2023-12-20T13:06:49;2.88;;;2.60;;
70667;SDS011;58242;51.250;-1.118;2023-12-20T13:09:14;2.78;;;2.53;;
70667;SDS011;58242;51.250;-1.118;2023-12-20T13:11:40;2.55;;;2.35;;
70667;SDS011;58242;51.250;-1.118;2023-12-20T13:14:05;3.47;;;2.80;;
70667;SDS011;58242;51.250;-1.118;2023-12-20T13:16:32;2.63;;;2.40;;
70667;SDS011;58242;51.250;-1.118;2023-12-20T13:18:59;2.80;;;2.50;;
70667;SDS011;58242;51.250;-1.118;2023-12-20T13:21:24;2.40;;;2.20;;
70667;SDS011;58242;51.250;-1.118;2023-12-20T13:23:50;4.13;;;2.30;;
70667;SDS011;58242;51.250;-1.118;2023-12-20T13:26:15;4.53;;;2.72;;
70667;SDS011;58242;51.250;-1.118;2023-12-20T13:28:41;3.38;;;2.15;;
70667;SDS011;58242;51.250;-1.118;2023-12-20T13:31:07;4.72;;;2.72;;
70667;SDS011;58242;51.250;-1.118;2023-12-20T13:33:32;3.47;;;2.78;;
70667;SDS011;58242;51.250;-1.118;2023-12-20T13:35:57;4.55;;;2.40;;
70667;SDS011;58242;51.250;-1.118;2023-12-20T13:38:23;3.42;;;2.20;;
70667;SDS011;58242;51.250;-1.118;2023-12-20T13:40:48;3.05;;;2.22;;
70667;SDS011;58242;51.250;-1.118;2023-12-20T13:43:14;2.20;;;2.00;;
70667;SDS011;58242;51.250;-1.118;2023-12-20T13:45:41;3.45;;;2.40;;
70667;SDS011;58242;51.250;-1.118;2023-12-20T13:48:07;2.72;;;2.53;;
70667;SDS011;58242;51.250;-1.118;2023-12-20T13:50:32;2.28;;;2.10;;
70667;SDS011;58242;51.250;-1.118;2023-12-20T13:52:58;2.17;;;1.98;;
70667;SDS011;58242;51.250;-1.118;2023-12-20T13:55:23;4.15;;;2.60;;
70667;SDS011;58242;51.250;-1.118;2023-12-20T13:57:50;3.80;;;2.47;;
70667;SDS011;58242;51.250;-1.118;2023-12-20T14:00:16;3.63;;;2.83;;
70667;SDS011;58242;51.250;-1.118;2023-12-20T14:02:41;2.88;;;2.40;;
70667;SDS011;58242;51.250;-1.118;2023-12-20T14:05:08;5.13;;;2.38;;
70667;SDS011;58242;51.250;-1.118;2023-12-20T14:07:34;7.10;;;2.13;;
70667;SDS011;58242;51.250;-1.118;2023-12-20T14:09:59;3.53;;;2.50;;
70667;SDS011;58242;51.250;-1.118;2023-12-20T14:12:25;2.70;;;2.50;;
70667;SDS011;58242;51.250;-1.118;2023-12-20T14:14:50;2.58;;;2.38;;
70667;SDS011;58242;51.250;-1.118;2023-12-20T14:17:16;2.88;;;2.67;;
70667;SDS011;58242;51.250;-1.118;2023-12-20T14:19:42;4.20;;;2.65;;
70667;SDS011;58242;51.250;-1.118;2023-12-20T14:22:07;2.70;;;2.50;;
70667;SDS011;58242;51.250;-1.118;2023-12-20T14:24:33;3.45;;;2.88;;
70667;SDS011;58242;51.250;-1.118;2023-12-20T14:27:00;4.57;;;2.67;;
70667;SDS011;58242;51.250;-1.118;2023-12-20T14:29:25;5.75;;;2.97;;
70667;SDS011;58242;51.250;-1.118;2023-12-20T14:31:52;2.92;;;2.63;;
70667;SDS011;58242;51.250;-1.118;2023-12-20T14:34:17;3.75;;;3.40;;
70667;SDS011;58242;51.250;-1.118;2023-12-20T14:36:43;3.15;;;2.75;;
70667;SDS011;58242;51.250;-1.118;2023-12-20T14:39:08;3.22;;;2.95;;
70667;SDS011;58242;51.250;-1.118;2023-12-20T14:41:33;3.60;;;3.40;;
70667;SDS011;58242;51.250;-1.118;2023-12-20T14:43:59;5.88;;;3.00;;
70667;SDS011;58242;51.250;-1.118;2023-12-20T14:46:29;3.22;;;2.88;;
70667;SDS011;58242;51.250;-1.118;2023-12-20T14:48:55;4.82;;;3.05;;
70667;SDS011;58242;51.250;-1.118;2023-12-20T14:51:20;4.55;;;2.88;;